Terminal Aerodrome Forecast
Issued by NWS

Home | Current Version | Previous Version | Graphics & Text | Print | Product List | Glossary On
Versions: 1 2 3 4 5 6 7 8 9 10 11 12 13 14 15 16 17 18 19 20 21 22 23
000
FTUS42 KMHX 271300 AAA
TAFPGV
TAF AMD
KPGV 271343Z 2714/2812 26008KT P6SM BKN250
     FM271900 24010G15KT P6SM VCTS BKN040CB BKN250
     FM272300 23008KT P6SM BKN040
     FM280100 20010KT P6SM SCT100
      AMD LTD TO CLD VIS AND WIND=

USA.gov is the U.S. government's official web portal to all federal, state and local government web resources and services.